sensor_id;sensor_type;location;lat;lon;timestamp;pressure;altitude;pressure_sealevel;temperature;humidity
54918;BME280;40818;50.562;7.454;2023-02-28T00:00:11;98786.16;;;-2.93;100.00
54918;BME280;40818;50.562;7.454;2023-02-28T00:10:19;98786.16;;;-2.96;100.00
54918;BME280;40818;50.562;7.454;2023-02-28T00:20:24;98787.84;;;-2.95;100.00
54918;BME280;40818;50.562;7.454;2023-02-28T00:30:32;98781.09;;;-2.90;100.00
54918;BME280;40818;50.562;7.454;2023-02-28T00:40:39;98791.19;;;-3.01;100.00
54918;BME280;40818;50.562;7.454;2023-02-28T00:50:48;98791.16;;;-3.12;100.00
54918;BME280;40818;50.562;7.454;2023-02-28T01:00:52;98790.16;;;-3.32;100.00
54918;BME280;40818;50.562;7.454;2023-02-28T01:11:07;98789.25;;;-3.40;100.00
54918;BME280;40818;50.562;7.454;2023-02-28T01:21:12;98788.41;;;-3.36;100.00
54918;BME280;40818;50.562;7.454;2023-02-28T01:31:20;98791.69;;;-3.48;100.00
54918;BME280;40818;50.562;7.454;2023-02-28T01:41:26;98787.41;;;-3.58;100.00
54918;BME280;40818;50.562;7.454;2023-02-28T01:51:37;98781.41;;;-3.67;100.00
54918;BME280;40818;50.562;7.454;2023-02-28T02:01:41;98782.22;;;-3.69;100.00
54918;BME280;40818;50.562;7.454;2023-02-28T02:11:48;98776.19;;;-3.84;100.00
54918;BME280;40818;50.562;7.454;2023-02-28T02:22:09;98761.66;;;-4.00;100.00
54918;BME280;40818;50.562;7.454;2023-02-28T02:43:01;98753.97;;;-4.08;100.00
54918;BME280;40818;50.562;7.454;2023-02-28T02:53:08;98753.88;;;-4.19;100.00
54918;BME280;40818;50.562;7.454;2023-02-28T03:03:17;98758.09;;;-4.18;100.00
54918;BME280;40818;50.562;7.454;2023-02-28T03:13:41;98755.50;;;-4.24;100.00
54918;BME280;40818;50.562;7.454;2023-02-28T03:23:53;98752.97;;;-4.25;100.00
54918;BME280;40818;50.562;7.454;2023-02-28T03:34:03;98747.72;;;-4.42;100.00
54918;BME280;40818;50.562;7.454;2023-02-28T03:44:13;98757.72;;;-4.53;100.00
54918;BME280;40818;50.562;7.454;2023-02-28T03:54:22;98756.81;;;-4.57;100.00
54918;BME280;40818;50.562;7.454;2023-02-28T04:04:29;98760.13;;;-4.63;100.00
54918;BME280;40818;50.562;7.454;2023-02-28T04:14:32;98762.50;;;-4.76;100.00
54918;BME280;40818;50.562;7.454;2023-02-28T04:24:38;98757.25;;;-4.92;100.00
54918;BME280;40818;50.562;7.454;2023-02-28T04:34:43;98757.25;;;-4.90;100.00
54918;BME280;40818;50.562;7.454;2023-02-28T04:44:49;98758.97;;;-4.91;100.00
54918;BME280;40818;50.562;7.454;2023-02-28T04:54:52;98759.81;;;-4.89;100.00
54918;BME280;40818;50.562;7.454;2023-02-28T05:04:58;98770.69;;;-4.96;100.00
54918;BME280;40818;50.562;7.454;2023-02-28T05:15:02;98773.16;;;-5.02;100.00
54918;BME280;40818;50.562;7.454;2023-02-28T05:25:10;98770.56;;;-5.05;100.00
54918;BME280;40818;50.562;7.454;2023-02-28T05:35:15;98762.84;;;-5.16;100.00
54918;BME280;40818;50.562;7.454;2023-02-28T05:45:21;98776.31;;;-5.17;100.00
54918;BME280;40818;50.562;7.454;2023-02-28T05:55:24;98773.78;;;-5.19;100.00
54918;BME280;40818;50.562;7.454;2023-02-28T06:05:31;98770.25;;;-5.30;100.00
54918;BME280;40818;50.562;7.454;2023-02-28T06:15:34;98779.50;;;-5.31;100.00
54918;BME280;40818;50.562;7.454;2023-02-28T06:25:44;98783.59;;;-5.39;100.00
54918;BME280;40818;50.562;7.454;2023-02-28T06:35:50;98783.56;;;-5.40;100.00
54918;BME280;40818;50.562;7.454;2023-02-28T06:45:57;98794.09;;;-5.12;100.00
54918;BME280;40818;50.562;7.454;2023-02-28T06:56:03;98806.38;;;-4.81;100.00
54918;BME280;40818;50.562;7.454;2023-02-28T07:06:10;98813.16;;;-4.10;100.00
54918;BME280;40818;50.562;7.454;2023-02-28T07:16:13;98822.94;;;-3.57;98.65
54918;BME280;40818;50.562;7.454;2023-02-28T07:26:20;98825.00;;;-3.10;95.21
54918;BME280;40818;50.562;7.454;2023-02-28T07:36:24;98831.44;;;-2.13;89.41
54918;BME280;40818;50.562;7.454;2023-02-28T07:46:30;98825.59;;;-1.74;84.69
54918;BME280;40818;50.562;7.454;2023-02-28T07:56:35;98833.25;;;-1.26;80.01
54918;BME280;40818;50.562;7.454;2023-02-28T08:06:42;98840.84;;;-1.80;77.05
54918;BME280;40818;50.562;7.454;2023-02-28T08:16:45;98827.31;;;-1.48;78.08
54918;BME280;40818;50.562;7.454;2023-02-28T08:26:51;98823.06;;;-1.75;77.18
54918;BME280;40818;50.562;7.454;2023-02-28T08:36:55;98825.56;;;-1.78;76.19
54918;BME280;40818;50.562;7.454;2023-02-28T08:47:00;98833.28;;;-1.29;73.31
54918;BME280;40818;50.562;7.454;2023-02-28T08:57:04;98819.34;;;-0.01;71.35
54918;BME280;40818;50.562;7.454;2023-02-28T09:07:10;98814.09;;;0.24;69.98
54918;BME280;40818;50.562;7.454;2023-02-28T09:17:14;98809.47;;;0.71;68.22
54918;BME280;40818;50.562;7.454;2023-02-28T09:27:20;98815.81;;;1.24;56.16
54918;BME280;40818;50.562;7.454;2023-02-28T09:37:23;98814.16;;;0.14;55.92
54918;BME280;40818;50.562;7.454;2023-02-28T09:47:36;98838.41;;;0.76;52.83
54918;BME280;40818;50.562;7.454;2023-02-28T09:57:42;98816.09;;;0.96;52.90
54918;BME280;40818;50.562;7.454;2023-02-28T10:07:58;98817.28;;;1.47;51.51
54918;BME280;40818;50.562;7.454;2023-02-28T10:18:11;98803.47;;;1.60;50.41
54918;BME280;40818;50.562;7.454;2023-02-28T10:28:18;98822.09;;;1.73;49.01
54918;BME280;40818;50.562;7.454;2023-02-28T10:38:23;98825.47;;;1.75;49.30
54918;BME280;40818;50.562;7.454;2023-02-28T10:48:34;98801.09;;;1.45;48.75
54918;BME280;40818;50.562;7.454;2023-02-28T10:58:45;98805.28;;;1.49;48.78
54918;BME280;40818;50.562;7.454;2023-02-28T11:08:53;98811.81;;;1.75;50.16
54918;BME280;40818;50.562;7.454;2023-02-28T11:18:57;98804.59;;;1.36;49.58
54918;BME280;40818;50.562;7.454;2023-02-28T11:29:10;98791.66;;;2.14;46.36
54918;BME280;40818;50.562;7.454;2023-02-28T11:39:15;98788.44;;;2.57;47.51
54918;BME280;40818;50.562;7.454;2023-02-28T11:49:32;98795.81;;;2.24;47.87
54918;BME280;40818;50.562;7.454;2023-02-28T11:59:51;98782.78;;;2.91;46.51
54918;BME280;40818;50.562;7.454;2023-02-28T12:10:12;98776.72;;;3.40;46.82
54918;BME280;40818;50.562;7.454;2023-02-28T12:20:26;98768.69;;;3.56;45.33
54918;BME280;40818;50.562;7.454;2023-02-28T12:30:41;98775.75;;;3.87;46.25
54918;BME280;40818;50.562;7.454;2023-02-28T12:40:50;98769.59;;;3.55;45.63
54918;BME280;40818;50.562;7.454;2023-02-28T12:50:58;98771.91;;;3.23;48.17
54918;BME280;40818;50.562;7.454;2023-02-28T13:11:51;98759.78;;;2.85;45.83
54918;BME280;40818;50.562;7.454;2023-02-28T13:21:57;98754.44;;;2.97;46.54
54918;BME280;40818;50.562;7.454;2023-02-28T13:32:27;98750.53;;;2.76;46.63
54918;BME280;40818;50.562;7.454;2023-02-28T13:42:34;98743.38;;;2.95;48.31
54918;BME280;40818;50.562;7.454;2023-02-28T13:52:44;98749.44;;;2.91;46.52
54918;BME280;40818;50.562;7.454;2023-02-28T14:03:16;98739.88;;;2.49;48.92
54918;BME280;40818;50.562;7.454;2023-02-28T14:13:42;98726.47;;;2.33;48.98
54918;BME280;40818;50.562;7.454;2023-02-28T14:24:22;98717.03;;;2.35;49.84
54918;BME280;40818;50.562;7.454;2023-02-28T14:34:42;98724.50;;;2.49;50.48
54918;BME280;40818;50.562;7.454;2023-02-28T14:44:53;98709.25;;;1.87;50.45
54918;BME280;40818;50.562;7.454;2023-02-28T14:55:01;98714.28;;;1.92;51.20
54918;BME280;40818;50.562;7.454;2023-02-28T15:05:25;98710.56;;;1.53;51.02
54918;BME280;40818;50.562;7.454;2023-02-28T15:15:39;98703.50;;;1.69;52.28
54918;BME280;40818;50.562;7.454;2023-02-28T15:25:44;98716.81;;;1.31;52.11
54918;BME280;40818;50.562;7.454;2023-02-28T15:36:02;98709.31;;;1.14;52.09
54918;BME280;40818;50.562;7.454;2023-02-28T15:46:07;98716.16;;;1.13;52.70
54918;BME280;40818;50.562;7.454;2023-02-28T15:56:22;98712.88;;;1.02;54.03
54918;BME280;40818;50.562;7.454;2023-02-28T16:06:37;98706.91;;;1.05;53.83
54918;BME280;40818;50.562;7.454;2023-02-28T16:16:46;98712.03;;;1.01;53.96
54918;BME280;40818;50.562;7.454;2023-02-28T16:26:52;98722.28;;;0.98;53.99
54918;BME280;40818;50.562;7.454;2023-02-28T16:36:59;98731.72;;;0.95;54.85
54918;BME280;40818;50.562;7.454;2023-02-28T16:47:03;98718.97;;;0.90;54.88
54918;BME280;40818;50.562;7.454;2023-02-28T16:57:17;98746.38;;;0.76;55.42
54918;BME280;40818;50.562;7.454;2023-02-28T17:07:22;98755.88;;;0.64;55.99
54918;BME280;40818;50.562;7.454;2023-02-28T17:17:28;98767.88;;;0.55;55.87
54918;BME280;40818;50.562;7.454;2023-02-28T17:27:32;98780.81;;;0.31;57.03
54918;BME280;40818;50.562;7.454;2023-02-28T17:37:38;98801.34;;;0.16;57.70
54918;BME280;40818;50.562;7.454;2023-02-28T17:47:43;98798.06;;;-0.03;58.19
54918;BME280;40818;50.562;7.454;2023-02-28T17:57:51;98811.75;;;-0.15;57.90
54918;BME280;40818;50.562;7.454;2023-02-28T18:07:54;98801.63;;;-0.37;58.29
54918;BME280;40818;50.562;7.454;2023-02-28T18:18:01;98806.78;;;-0.52;58.58
54918;BME280;40818;50.562;7.454;2023-02-28T18:28:07;98811.94;;;-0.64;59.38
54918;BME280;40818;50.562;7.454;2023-02-28T18:38:14;98811.97;;;-0.71;60.01
54918;BME280;40818;50.562;7.454;2023-02-28T18:48:18;98811.13;;;-0.77;59.96
54918;BME280;40818;50.562;7.454;2023-02-28T18:58:25;98816.25;;;-0.82;60.60
54918;BME280;40818;50.562;7.454;2023-02-28T19:08:28;98820.47;;;-0.86;60.22
54918;BME280;40818;50.562;7.454;2023-02-28T19:18:35;98815.38;;;-0.84;63.20
54918;BME280;40818;50.562;7.454;2023-02-28T19:28:38;98819.66;;;-0.94;61.37
54918;BME280;40818;50.562;7.454;2023-02-28T19:38:45;98828.16;;;-1.04;61.99
54918;BME280;40818;50.562;7.454;2023-02-28T19:48:52;98830.72;;;-1.13;62.19
54918;BME280;40818;50.562;7.454;2023-02-28T19:58:58;98830.75;;;-1.21;62.60
54918;BME280;40818;50.562;7.454;2023-02-28T20:09:02;98826.47;;;-1.28;63.16
54918;BME280;40818;50.562;7.454;2023-02-28T20:19:08;98823.94;;;-1.38;64.04
54918;BME280;40818;50.562;7.454;2023-02-28T20:29:12;98818.00;;;-1.44;64.36
54918;BME280;40818;50.562;7.454;2023-02-28T20:39:18;98820.53;;;-1.55;65.51
54918;BME280;40818;50.562;7.454;2023-02-28T20:49:22;98811.19;;;-1.61;65.64
54918;BME280;40818;50.562;7.454;2023-02-28T20:59:28;98814.56;;;-1.68;66.19
54918;BME280;40818;50.562;7.454;2023-02-28T21:09:31;98805.22;;;-1.80;67.33
54918;BME280;40818;50.562;7.454;2023-02-28T21:19:37;98800.16;;;-1.77;67.72
54918;BME280;40818;50.562;7.454;2023-02-28T21:29:41;98800.16;;;-1.77;67.74
54918;BME280;40818;50.562;7.454;2023-02-28T21:39:47;98805.22;;;-1.89;69.42
54918;BME280;40818;50.562;7.454;2023-02-28T21:49:50;98806.03;;;-2.02;70.24
54918;BME280;40818;50.562;7.454;2023-02-28T21:59:56;98801.78;;;-2.13;71.15
54918;BME280;40818;50.562;7.454;2023-02-28T22:10:00;98805.09;;;-2.25;72.14
54918;BME280;40818;50.562;7.454;2023-02-28T22:20:07;98806.75;;;-2.41;74.20
54918;BME280;40818;50.562;7.454;2023-02-28T22:30:12;98811.78;;;-2.51;76.12
54918;BME280;40818;50.562;7.454;2023-02-28T22:40:18;98816.81;;;-2.65;78.09
54918;BME280;40818;50.562;7.454;2023-02-28T22:50:22;98815.91;;;-2.73;78.92
54918;BME280;40818;50.562;7.454;2023-02-28T23:00:28;98823.53;;;-2.77;79.33
54918;BME280;40818;50.562;7.454;2023-02-28T23:10:31;98821.75;;;-2.87;81.66
54918;BME280;40818;50.562;7.454;2023-02-28T23:20:37;98803.06;;;-2.98;81.41
54918;BME280;40818;50.562;7.454;2023-02-28T23:30:41;98793.69;;;-3.07;82.61
54918;BME280;40818;50.562;7.454;2023-02-28T23:40:48;98799.66;;;-3.03;83.10
54918;BME280;40818;50.562;7.454;2023-02-28T23:50:51;98800.56;;;-2.92;83.15
